EmailTwitter


Observations de surface / Québec / EGNH

Régions: Québec | Canada | États-Unis | Europe | France | UK | Elsewhere
Station
Affichage
Infos & localisation pour EGNH | Aide pour décoder les METARs

Observations prises le 2017-05-24 à 05H50 UTC à BLACKPOOL AIRPOR, UK (EGNH)

Etat du ciel: ciel variable.

Température: 14.0 Celsius

Point de rosée: 13.0 Celsius

Humidité relative: 94%

Vents: Ouest à 20 km/h ou 11 noeuds.

Pression au niveau moyen de la mer: 102.50 kilopascals.

Visibilité horizontale: 6.21 milles terrestres ou 9.94 kilomètres.

Observation METAR:

EGNH 240550Z 27011KT 9999 FEW012 SCT021 14/13 Q1025=